createdAt,value
2023-01-02T00:00:21.611Z,99879.98
2023-01-02T00:03:10.016Z,99882.92
2023-01-02T00:05:38.335Z,99888.27
2023-01-02T00:08:06.682Z,99884.54
2023-01-02T00:10:35.000Z,99880.42
2023-01-02T00:13:03.427Z,99877.80
2023-01-02T00:15:33.026Z,99877.42
2023-01-02T00:18:01.390Z,99874.05
2023-01-02T00:20:29.803Z,99871.92
2023-01-02T00:22:58.224Z,99868.27
2023-01-02T00:25:26.489Z,99864.98
2023-01-02T00:27:56.766Z,99861.97
2023-01-02T00:30:25.066Z,99860.69
2023-01-02T00:32:53.337Z,99862.98
2023-01-02T00:35:21.815Z,99858.50
2023-01-02T00:37:52.777Z,99855.04
2023-01-02T00:40:21.038Z,99847.75
2023-01-02T00:42:49.364Z,99849.84
2023-01-02T00:45:17.825Z,99844.49
2023-01-02T00:47:46.129Z,99845.26
2023-01-02T00:50:14.470Z,99842.23
2023-01-02T00:52:42.877Z,99841.38
2023-01-02T00:55:11.587Z,99838.52
2023-01-02T00:57:41.391Z,99835.52
2023-01-02T01:00:10.306Z,99832.82
2023-01-02T01:02:38.773Z,99833.45
2023-01-02T01:05:07.771Z,99831.48
2023-01-02T01:07:36.132Z,99836.11
2023-01-02T01:10:04.835Z,99834.97
2023-01-02T01:12:33.190Z,99834.91
2023-01-02T01:15:01.579Z,99834.09
2023-01-02T01:17:33.823Z,99838.96
2023-01-02T01:20:02.410Z,99838.73
2023-01-02T01:22:30.695Z,99834.14
2023-01-02T01:24:59.034Z,99830.50
2023-01-02T01:27:28.060Z,99827.45
2023-01-02T01:29:56.367Z,99829.90
2023-01-02T01:32:24.695Z,99827.32
2023-01-02T01:34:53.163Z,99825.27
2023-01-02T01:37:21.478Z,99826.70
2023-01-02T01:39:52.730Z,99828.70
2023-01-02T01:42:24.713Z,99826.66
2023-01-02T01:44:55.228Z,99824.27
2023-01-02T01:47:32.769Z,99827.74
2023-01-02T01:50:10.635Z,99824.98
2023-01-02T01:52:48.080Z,99824.70
2023-01-02T01:55:16.377Z,99816.56
2023-01-02T01:57:57.447Z,99813.48
2023-01-02T02:00:25.887Z,99814.02
2023-01-02T02:03:00.011Z,99815.73
2023-01-02T02:05:31.162Z,99817.33
2023-01-02T02:08:48.757Z,99819.16
2023-01-02T02:11:18.312Z,99820.09
2023-01-02T02:13:47.287Z,99823.33
2023-01-02T02:16:15.628Z,99826.15
2023-01-02T02:19:13.389Z,99823.68
2023-01-02T02:21:56.725Z,99826.29
2023-01-02T02:25:02.219Z,99830.15
2023-01-02T02:27:59.789Z,99830.66
2023-01-02T02:30:38.272Z,99828.91
2023-01-02T02:33:24.995Z,99829.79
2023-01-02T02:35:59.666Z,99831.65
2023-01-02T02:39:05.979Z,99829.73
2023-01-02T02:41:35.478Z,99825.83
2023-01-02T02:44:03.786Z,99818.75
2023-01-02T02:47:10.226Z,99817.75
2023-01-02T02:50:03.562Z,99816.09
2023-01-02T02:52:47.490Z,99815.77
2023-01-02T02:55:25.603Z,99820.98
2023-01-02T02:57:56.732Z,99822.13
2023-01-02T03:00:25.116Z,99822.65
2023-01-02T03:02:53.661Z,99816.45
2023-01-02T03:05:39.970Z,99817.18
2023-01-02T03:08:24.757Z,99812.46
2023-01-02T03:11:01.713Z,99807.27
2023-01-02T03:13:42.442Z,99807.33
2023-01-02T03:16:37.897Z,99810.39
2023-01-02T03:19:15.105Z,99813.55
2023-01-02T03:21:48.162Z,99816.45
2023-01-02T03:24:20.248Z,99819.17
2023-01-02T03:26:55.371Z,99820.83
2023-01-02T03:29:30.879Z,99819.98
2023-01-02T03:32:03.783Z,99814.04
2023-01-02T03:34:37.220Z,99807.23
2023-01-02T03:37:12.505Z,99800.92
2023-01-02T03:39:46.686Z,99802.27
2023-01-02T03:42:26.928Z,99799.81
2023-01-02T03:45:17.170Z,99800.35
2023-01-02T03:48:21.852Z,99801.49
2023-01-02T03:50:55.091Z,99803.73
2023-01-02T03:53:24.443Z,99800.45
2023-01-02T03:56:11.533Z,99795.83
2023-01-02T03:58:50.110Z,99793.45
2023-01-02T04:01:24.683Z,99786.93
2023-01-02T04:04:19.971Z,99791.95
2023-01-02T04:06:56.248Z,99794.11
2023-01-02T04:09:29.205Z,99794.89
2023-01-02T04:12:04.617Z,99788.84
2023-01-02T04:14:51.064Z,99784.95
2023-01-02T04:17:22.491Z,99779.96
2023-01-02T04:19:56.506Z,99778.33
2023-01-02T04:22:29.014Z,99774.61
2023-01-02T04:25:07.624Z,99768.32
2023-01-02T04:27:41.364Z,99762.21
2023-01-02T04:30:10.950Z,99756.09
2023-01-02T04:32:43.399Z,99751.41
2023-01-02T04:35:17.805Z,99747.33
2023-01-02T04:37:47.075Z,99745.59
2023-01-02T04:40:26.079Z,99744.92
2023-01-02T04:42:55.146Z,99741.02
2023-01-02T04:45:23.591Z,99745.36
2023-01-02T04:47:51.845Z,99743.52
2023-01-02T04:50:20.271Z,99733.00
2023-01-02T04:52:48.556Z,99724.59
2023-01-02T04:55:16.946Z,99717.20
2023-01-02T04:57:45.260Z,99709.40
2023-01-02T05:00:13.938Z,99707.02
2023-01-02T05:02:42.387Z,99704.85
2023-01-02T05:05:11.178Z,99697.10
2023-01-02T05:07:41.804Z,99695.70
2023-01-02T05:10:10.650Z,99692.73
2023-01-02T05:12:39.594Z,99690.13
2023-01-02T05:15:09.779Z,99683.48
2023-01-02T05:17:40.821Z,99683.35
2023-01-02T05:20:12.495Z,99678.30
2023-01-02T05:23:02.477Z,99678.59
2023-01-02T05:25:36.244Z,99679.61
2023-01-02T05:28:04.604Z,99680.02
2023-01-02T05:30:33.314Z,99682.10
2023-01-02T05:33:01.588Z,99683.70
2023-01-02T05:35:32.893Z,99685.81
2023-01-02T05:38:02.891Z,99689.15
2023-01-02T05:40:31.268Z,99692.00
2023-01-02T05:42:59.571Z,99693.43
2023-01-02T05:45:28.540Z,99689.05
2023-01-02T05:47:56.856Z,99690.67
2023-01-02T05:50:25.133Z,99695.11
2023-01-02T05:52:55.280Z,99701.75
2023-01-02T05:55:23.686Z,99703.46
2023-01-02T05:57:56.522Z,99705.95
2023-01-02T06:00:25.070Z,99705.79
2023-01-02T06:02:58.821Z,99706.90
2023-01-02T06:05:27.384Z,99705.03
2023-01-02T06:07:55.671Z,99707.47
2023-01-02T06:10:23.910Z,99708.20
2023-01-02T06:12:52.269Z,99705.57
2023-01-02T06:15:20.561Z,99705.93
2023-01-02T06:17:49.267Z,99704.80
2023-01-02T06:20:17.671Z,99703.62
2023-01-02T06:22:45.999Z,99709.55
2023-01-02T06:25:14.407Z,99707.77
2023-01-02T06:27:42.823Z,99701.16
2023-01-02T06:30:11.404Z,99696.86
2023-01-02T06:32:39.766Z,99695.82
2023-01-02T06:35:08.509Z,99694.73
2023-01-02T06:37:36.780Z,99697.08
2023-01-02T06:40:05.716Z,99695.43
2023-01-02T06:42:34.071Z,99692.20
2023-01-02T06:45:02.578Z,99688.75
2023-01-02T06:47:30.945Z,99685.08
2023-01-02T06:49:59.369Z,99684.13
2023-01-02T06:52:29.718Z,99685.51
2023-01-02T06:54:58.018Z,99685.45
2023-01-02T06:57:29.176Z,99678.89
2023-01-02T06:59:57.551Z,99681.27
2023-01-02T07:02:25.934Z,99681.86
2023-01-02T07:04:54.391Z,99682.23
2023-01-02T07:07:22.755Z,99691.25
2023-01-02T07:09:51.103Z,99694.81
2023-01-02T07:12:19.548Z,99695.98
2023-01-02T07:14:47.867Z,99697.48
2023-01-02T07:17:16.227Z,99702.70
2023-01-02T07:19:49.814Z,99699.95
2023-01-02T07:22:23.339Z,99698.70
2023-01-02T07:24:52.536Z,99697.60
2023-01-02T07:27:20.803Z,99699.56
2023-01-02T07:29:49.223Z,99698.02
2023-01-02T07:32:21.013Z,99697.14
2023-01-02T07:34:53.761Z,99701.35
2023-01-02T07:37:22.069Z,99701.01
2023-01-02T07:39:50.287Z,99703.84
2023-01-02T07:42:18.631Z,99705.54
2023-01-02T07:44:46.996Z,99710.30
2023-01-02T07:47:15.285Z,99708.38
2023-01-02T07:49:43.659Z,99703.91
2023-01-02T07:52:12.028Z,99700.77
2023-01-02T07:54:40.308Z,99696.79
2023-01-02T07:57:08.606Z,99691.89
2023-01-02T07:59:36.972Z,99688.70
2023-01-02T08:02:05.379Z,99688.88
2023-01-02T08:04:36.478Z,99688.34
2023-01-02T08:07:04.871Z,99686.90
2023-01-02T08:09:35.154Z,99685.90
2023-01-02T08:12:03.607Z,99682.27
2023-01-02T08:14:32.008Z,99685.33
2023-01-02T08:17:00.358Z,99685.23
2023-01-02T08:19:29.113Z,99680.86
2023-01-02T08:21:57.491Z,99682.86
2023-01-02T08:24:25.769Z,99684.47
2023-01-02T08:26:54.132Z,99686.41
2023-01-02T08:29:22.501Z,99692.67
2023-01-02T08:31:50.938Z,99692.64
2023-01-02T08:34:19.277Z,99691.83
2023-01-02T08:36:47.691Z,99694.02
2023-01-02T08:39:16.091Z,99696.86
2023-01-02T08:41:45.248Z,99696.73
2023-01-02T08:44:13.595Z,99696.91
2023-01-02T08:46:43.084Z,99700.02
2023-01-02T08:49:12.594Z,99702.19
2023-01-02T08:51:41.192Z,99699.25
2023-01-02T08:54:09.726Z,99698.95
2023-01-02T08:56:38.254Z,99697.70
2023-01-02T08:59:12.619Z,99693.90
2023-01-02T09:01:42.057Z,99692.09
2023-01-02T09:04:12.927Z,99693.29
2023-01-02T09:06:44.034Z,99694.71
2023-01-02T09:09:15.337Z,99690.47
2023-01-02T09:11:50.893Z,99691.84
2023-01-02T09:14:21.972Z,99694.46
2023-01-02T09:16:51.831Z,99690.14
2023-01-02T09:19:20.422Z,99684.84
2023-01-02T09:21:48.817Z,99685.28
2023-01-02T09:24:17.103Z,99684.84
2023-01-02T09:26:45.977Z,99681.05
2023-01-02T09:29:15.131Z,99679.02
2023-01-02T09:31:43.632Z,99679.40
2023-01-02T09:34:12.786Z,99676.00
2023-01-02T09:36:41.489Z,99672.52
2023-01-02T09:39:09.945Z,99667.76
2023-01-02T09:41:50.507Z,99664.31
2023-01-02T09:44:25.621Z,99660.48
2023-01-02T09:47:09.055Z,99653.45
2023-01-02T09:49:42.739Z,99644.01
2023-01-02T09:52:20.617Z,99639.85
2023-01-02T09:54:49.010Z,99634.30
2023-01-02T09:57:28.510Z,99625.54
2023-01-02T10:00:17.105Z,99623.71
2023-01-02T10:02:59.412Z,99618.25
2023-01-02T10:05:40.845Z,99608.23
2023-01-02T10:08:18.531Z,99606.89
2023-01-02T10:10:55.943Z,99607.48
2023-01-02T10:14:20.986Z,99606.19
2023-01-02T10:16:55.187Z,99599.88
2023-01-02T10:19:49.239Z,99596.41
2023-01-02T10:22:22.771Z,99589.86
2023-01-02T10:25:10.096Z,99586.92
2023-01-02T10:27:46.196Z,99580.03
2023-01-02T10:30:24.676Z,99582.11
2023-01-02T10:33:15.470Z,99582.73
2023-01-02T10:35:56.949Z,99573.95
2023-01-02T10:38:37.395Z,99570.14
2023-01-02T10:41:06.338Z,99569.52
2023-01-02T10:43:37.200Z,99564.28
2023-01-02T10:46:05.678Z,99553.41
2023-01-02T10:48:37.365Z,99548.66
2023-01-02T10:51:13.155Z,99549.16
2023-01-02T10:53:41.483Z,99544.63
2023-01-02T10:56:20.722Z,99545.36
2023-01-02T10:58:54.729Z,99543.46
2023-01-02T11:01:23.567Z,99541.69
2023-01-02T11:04:00.939Z,99533.10
2023-01-02T11:06:38.836Z,99532.55
2023-01-02T11:09:19.940Z,99532.91
2023-01-02T11:11:54.595Z,99526.64
2023-01-02T11:14:34.111Z,99524.28
2023-01-02T11:17:11.404Z,99520.05
2023-01-02T11:20:00.049Z,99518.66
2023-01-02T11:22:38.788Z,99513.21
2023-01-02T11:25:23.814Z,99505.49
2023-01-02T11:28:04.176Z,99494.48
2023-01-02T11:30:44.089Z,99487.11
2023-01-02T11:33:29.296Z,99482.75
2023-01-02T11:36:04.135Z,99480.79
2023-01-02T11:38:48.245Z,99475.92
2023-01-02T11:41:59.827Z,99471.77
2023-01-02T11:45:12.881Z,99469.67
2023-01-02T11:48:33.659Z,99466.73
2023-01-02T11:51:43.795Z,99467.35
2023-01-02T11:54:31.348Z,99463.05
2023-01-02T11:57:43.634Z,99457.39
2023-01-02T12:00:24.328Z,99455.17
2023-01-02T12:03:18.127Z,99457.34
2023-01-02T12:06:40.101Z,99453.42
2023-01-02T12:09:56.787Z,99450.99
2023-01-02T12:13:02.962Z,99450.16
2023-01-02T12:16:01.984Z,99442.81
2023-01-02T12:18:53.053Z,99434.34
2023-01-02T12:22:13.018Z,99429.40
2023-01-02T12:28:08.831Z,99429.24
2023-01-02T12:31:28.827Z,99422.27
2023-01-02T12:34:43.715Z,99426.03
2023-01-02T12:38:53.656Z,99423.38
2023-01-02T12:42:12.309Z,99421.03
2023-01-02T12:45:05.467Z,99419.66
2023-01-02T12:48:44.159Z,99419.55
2023-01-02T12:55:55.819Z,99410.75
2023-01-02T12:59:26.847Z,99409.14
2023-01-02T13:02:52.786Z,99405.48
2023-01-02T13:05:50.024Z,99409.93
2023-01-02T13:09:18.335Z,99410.23
2023-01-02T13:12:23.944Z,99409.96
2023-01-02T13:15:36.183Z,99414.05
2023-01-02T13:19:12.698Z,99412.34
2023-01-02T13:22:09.305Z,99410.42
2023-01-02T13:25:09.134Z,99415.29
2023-01-02T13:27:51.008Z,99413.70
2023-01-02T13:30:42.564Z,99409.09
2023-01-02T13:33:40.420Z,99404.73
2023-01-02T13:36:32.548Z,99401.34
2023-01-02T13:39:51.141Z,99407.42
2023-01-02T13:43:02.470Z,99412.27
2023-01-02T13:45:55.294Z,99424.46
2023-01-02T13:48:35.880Z,99430.70
2023-01-02T13:51:17.671Z,99432.23
2023-01-02T13:54:12.178Z,99434.19
2023-01-02T13:57:50.271Z,99435.06
2023-01-02T14:00:54.232Z,99445.45
2023-01-02T14:03:31.532Z,99447.81
2023-01-02T14:06:28.432Z,99451.01
2023-01-02T14:09:29.803Z,99449.52
2023-01-02T14:12:08.586Z,99449.55
2023-01-02T14:14:52.999Z,99447.71
2023-01-02T14:17:28.789Z,99445.46
2023-01-02T14:20:25.047Z,99451.28
2023-01-02T14:23:18.342Z,99453.36
2023-01-02T14:25:50.349Z,99457.54
2023-01-02T14:28:56.312Z,99456.25
2023-01-02T14:31:42.560Z,99459.77
2023-01-02T14:34:26.003Z,99461.54
2023-01-02T14:37:32.774Z,99468.95
2023-01-02T14:43:39.555Z,99469.59
2023-01-02T14:46:30.900Z,99474.02
2023-01-02T14:49:25.476Z,99471.70
2023-01-02T14:52:23.209Z,99473.11
2023-01-02T14:55:11.553Z,99473.16
2023-01-02T14:57:53.698Z,99473.33
2023-01-02T15:00:37.785Z,99478.39
2023-01-02T15:03:11.327Z,99485.72
2023-01-02T15:06:04.138Z,99484.90
2023-01-02T15:08:52.653Z,99491.88
2023-01-02T15:11:43.303Z,99494.06
2023-01-02T15:14:23.747Z,99496.70
2023-01-02T15:17:00.218Z,99492.79
2023-01-02T15:19:32.429Z,99495.17
2023-01-02T15:22:16.207Z,99497.40
2023-01-02T15:24:50.502Z,99494.74
2023-01-02T15:27:26.905Z,99494.05
2023-01-02T15:29:58.407Z,99495.55
2023-01-02T15:32:33.251Z,99493.00
2023-01-02T15:35:29.347Z,99496.04
2023-01-02T15:38:00.226Z,99498.97
2023-01-02T15:40:34.203Z,99504.81
2023-01-02T15:43:35.200Z,99507.86
2023-01-02T15:46:04.694Z,99509.73
2023-01-02T15:48:45.451Z,99515.24
2023-01-02T15:51:20.826Z,99516.67
2023-01-02T15:54:14.446Z,99519.04
2023-01-02T15:56:43.225Z,99517.67
2023-01-02T15:59:33.070Z,99516.45
2023-01-02T16:02:03.428Z,99515.44
2023-01-02T16:04:34.948Z,99518.86
2023-01-02T16:07:26.859Z,99516.14
2023-01-02T16:09:57.690Z,99519.90
2023-01-02T16:12:26.261Z,99520.81
2023-01-02T16:14:59.347Z,99523.09
2023-01-02T16:17:34.106Z,99526.77
2023-01-02T16:20:16.624Z,99536.28
2023-01-02T16:22:52.099Z,99537.65
2023-01-02T16:25:26.623Z,99538.09
2023-01-02T16:28:01.090Z,99542.92
2023-01-02T16:30:33.901Z,99546.02
2023-01-02T16:33:21.327Z,99544.92
2023-01-02T16:36:19.070Z,99546.52
2023-01-02T16:39:00.094Z,99545.16
2023-01-02T16:41:37.687Z,99546.55
2023-01-02T16:44:15.389Z,99548.91
2023-01-02T16:46:47.523Z,99549.52
2023-01-02T16:49:23.983Z,99546.94
2023-01-02T16:52:21.386Z,99546.56
2023-01-02T16:54:54.355Z,99543.13
2023-01-02T16:57:23.962Z,99545.23
2023-01-02T16:59:57.316Z,99547.70
2023-01-02T17:02:34.886Z,99545.20
2023-01-02T17:05:31.180Z,99535.43
2023-01-02T17:07:59.635Z,99538.04
2023-01-02T17:10:31.048Z,99545.36
2023-01-02T17:12:59.496Z,99544.05
2023-01-02T17:15:28.181Z,99544.83
2023-01-02T17:17:57.204Z,99545.48
2023-01-02T17:20:27.441Z,99543.56
2023-01-02T17:22:55.982Z,99544.07
2023-01-02T17:25:24.489Z,99547.06
2023-01-02T17:27:55.469Z,99546.63
2023-01-02T17:30:24.335Z,99545.82
2023-01-02T17:32:54.346Z,99550.70
2023-01-02T17:35:25.185Z,99550.16
2023-01-02T17:37:54.171Z,99547.52
2023-01-02T17:40:22.562Z,99544.77
2023-01-02T17:42:53.934Z,99542.58
2023-01-02T17:45:22.366Z,99537.25
2023-01-02T17:48:05.640Z,99534.89
2023-01-02T17:50:38.937Z,99537.86
2023-01-02T17:53:11.199Z,99539.60
2023-01-02T17:55:39.667Z,99538.86
2023-01-02T17:58:08.672Z,99544.79
2023-01-02T18:00:37.066Z,99551.23
2023-01-02T18:03:05.497Z,99549.60
2023-01-02T18:05:36.250Z,99538.70
2023-01-02T18:08:05.627Z,99531.13
2023-01-02T18:10:39.022Z,99526.35
2023-01-02T18:13:07.347Z,99525.79
2023-01-02T18:15:40.000Z,99525.45
2023-01-02T18:18:14.269Z,99523.89
2023-01-02T18:20:45.716Z,99524.85
2023-01-02T18:23:15.436Z,99519.27
2023-01-02T18:25:48.510Z,99517.48
2023-01-02T18:28:23.652Z,99519.42
2023-01-02T18:30:58.940Z,99518.88
2023-01-02T18:33:32.870Z,99516.97
2023-01-02T18:36:03.410Z,99518.75
2023-01-02T18:38:36.124Z,99520.86
2023-01-02T18:41:22.290Z,99517.82
2023-01-02T18:44:26.125Z,99518.00
2023-01-02T18:47:05.346Z,99522.42
2023-01-02T18:49:44.506Z,99520.08
2023-01-02T18:52:15.646Z,99526.34
2023-01-02T18:54:50.554Z,99531.49
2023-01-02T18:57:22.939Z,99529.89
2023-01-02T18:59:51.956Z,99526.79
2023-01-02T19:02:49.534Z,99522.27
2023-01-02T19:05:34.291Z,99520.38
2023-01-02T19:08:08.823Z,99523.79
2023-01-02T19:10:55.464Z,99527.70
2023-01-02T19:13:34.915Z,99535.00
2023-01-02T19:16:19.676Z,99540.66
2023-01-02T19:18:52.912Z,99543.45
2023-01-02T19:21:33.642Z,99547.54
2023-01-02T19:24:05.083Z,99545.43
2023-01-02T19:26:47.747Z,99546.36
2023-01-02T19:29:23.592Z,99552.15
2023-01-02T19:32:16.870Z,99555.88
2023-01-02T19:34:51.955Z,99559.98
2023-01-02T19:37:41.221Z,99568.66
2023-01-02T19:40:21.986Z,99572.42
2023-01-02T19:42:52.472Z,99563.99
2023-01-02T19:45:28.084Z,99561.46
2023-01-02T19:47:56.385Z,99557.20
2023-01-02T19:50:27.128Z,99556.42
2023-01-02T19:52:55.508Z,99555.59
2023-01-02T19:55:23.966Z,99562.61
2023-01-02T19:57:52.468Z,99563.17
2023-01-02T20:00:21.283Z,99562.17
2023-01-02T20:02:51.880Z,99562.42
2023-01-02T20:05:28.767Z,99565.60
2023-01-02T20:08:02.388Z,99569.23
2023-01-02T20:10:31.209Z,99570.35
2023-01-02T20:12:59.475Z,99571.65
2023-01-02T20:15:28.514Z,99569.75
2023-01-02T20:18:00.521Z,99565.38
2023-01-02T20:20:32.257Z,99565.05
2023-01-02T20:23:01.874Z,99567.67
2023-01-02T20:25:30.233Z,99566.80
2023-01-02T20:28:00.144Z,99565.95
2023-01-02T20:30:28.686Z,99561.31
2023-01-02T20:32:57.112Z,99560.82
2023-01-02T20:35:25.592Z,99566.39
2023-01-02T20:37:54.062Z,99570.60
2023-01-02T20:40:23.795Z,99569.88
2023-01-02T20:42:52.185Z,99569.48
2023-01-02T20:45:22.487Z,99573.95
2023-01-02T20:47:50.895Z,99575.73
2023-01-02T20:50:19.276Z,99582.61
2023-01-02T20:52:49.976Z,99585.44
2023-01-02T20:55:22.281Z,99589.15
2023-01-02T20:57:51.699Z,99586.02
2023-01-02T21:00:22.054Z,99586.95
2023-01-02T21:02:50.810Z,99578.73
2023-01-02T21:05:19.851Z,99581.52
2023-01-02T21:07:48.289Z,99585.47
2023-01-02T21:10:17.368Z,99588.01
2023-01-02T21:13:04.724Z,99597.45
2023-01-02T21:15:47.041Z,99599.89
2023-01-02T21:18:23.306Z,99605.89
2023-01-02T21:20:55.048Z,99606.45
2023-01-02T21:23:25.964Z,99611.14
2023-01-02T21:25:54.572Z,99605.11
2023-01-02T21:28:24.621Z,99610.05
2023-01-02T21:30:53.917Z,99622.23
2023-01-02T21:33:24.388Z,99624.90
2023-01-02T21:35:55.133Z,99617.52
2023-01-02T21:38:25.334Z,99619.98
2023-01-02T21:40:54.882Z,99627.02
2023-01-02T21:43:23.425Z,99631.52
2023-01-02T21:45:51.755Z,99630.98
2023-01-02T21:48:23.355Z,99630.01
2023-01-02T21:50:51.801Z,99629.34
2023-01-02T21:53:20.240Z,99637.39
2023-01-02T21:55:48.656Z,99644.80
2023-01-02T21:58:17.766Z,99652.23
2023-01-02T22:00:47.536Z,99658.62
2023-01-02T22:03:16.460Z,99655.86
2023-01-02T22:05:45.003Z,99661.65
2023-01-02T22:08:13.549Z,99660.94
2023-01-02T22:10:42.119Z,99668.98
2023-01-02T22:13:10.523Z,99672.83
2023-01-02T22:15:38.996Z,99673.95
2023-01-02T22:18:07.383Z,99675.95
2023-01-02T22:20:36.487Z,99676.35
2023-01-02T22:23:04.972Z,99673.65
2023-01-02T22:25:33.474Z,99678.58
2023-01-02T22:28:01.857Z,99679.08
2023-01-02T22:30:34.441Z,99679.20
2023-01-02T22:33:04.676Z,99679.44
2023-01-02T22:35:34.240Z,99674.52
2023-01-02T22:38:03.447Z,99673.14
2023-01-02T22:40:31.960Z,99671.52
2023-01-02T22:43:02.871Z,99674.42
2023-01-02T22:45:47.344Z,99677.33
2023-01-02T22:48:22.201Z,99681.59
2023-01-02T22:50:54.244Z,99686.50
2023-01-02T22:53:30.180Z,99680.22
2023-01-02T22:56:00.081Z,99677.42
2023-01-02T22:58:28.916Z,99680.18
2023-01-02T23:01:03.808Z,99679.35
2023-01-02T23:03:39.237Z,99682.66
2023-01-02T23:06:07.704Z,99684.64
2023-01-02T23:08:36.849Z,99686.80
2023-01-02T23:11:07.166Z,99689.38
2023-01-02T23:13:36.930Z,99689.05
2023-01-02T23:16:24.994Z,99686.20
2023-01-02T23:19:12.101Z,99690.16
2023-01-02T23:21:44.140Z,99691.91
2023-01-02T23:24:15.169Z,99695.45
2023-01-02T23:26:47.959Z,99692.58
2023-01-02T23:29:17.215Z,99696.26
2023-01-02T23:31:49.080Z,99700.81
2023-01-02T23:34:21.098Z,99706.63
2023-01-02T23:36:51.951Z,99702.15
2023-01-02T23:39:23.040Z,99699.85
2023-01-02T23:41:52.222Z,99699.54
2023-01-02T23:44:22.922Z,99699.62
2023-01-02T23:46:51.446Z,99698.48
2023-01-02T23:49:19.778Z,99700.58
2023-01-02T23:51:48.154Z,99704.20
2023-01-02T23:54:18.227Z,99703.34
2023-01-02T23:56:49.012Z,99700.84
2023-01-02T23:59:21.151Z,99703.59
